sensor_id;sensor_type;location;lat;lon;timestamp;temperature;humidity
46037;DHT22;31769;49.304;8.428;2022-09-01T00:01:49;17.80;99.90
46037;DHT22;31769;49.304;8.428;2022-09-01T00:04:50;17.80;99.90
46037;DHT22;31769;49.304;8.428;2022-09-01T00:07:52;17.70;99.90
46037;DHT22;31769;49.304;8.428;2022-09-01T00:10:52;17.70;99.90
46037;DHT22;31769;49.304;8.428;2022-09-01T00:13:55;17.60;99.90
46037;DHT22;31769;49.304;8.428;2022-09-01T00:16:57;17.60;99.90
46037;DHT22;31769;49.304;8.428;2022-09-01T00:19:58;17.60;99.90
46037;DHT22;31769;49.304;8.428;2022-09-01T00:22:59;17.50;99.90
46037;DHT22;31769;49.304;8.428;2022-09-01T00:26:00;17.50;99.90
46037;DHT22;31769;49.304;8.428;2022-09-01T00:29:00;17.50;99.90
46037;DHT22;31769;49.304;8.428;2022-09-01T00:32:01;17.50;99.90
46037;DHT22;31769;49.304;8.428;2022-09-01T00:35:04;17.40;99.90
46037;DHT22;31769;49.304;8.428;2022-09-01T00:38:04;17.50;99.90
46037;DHT22;31769;49.304;8.428;2022-09-01T00:41:05;17.50;99.90
46037;DHT22;31769;49.304;8.428;2022-09-01T00:44:10;17.50;99.90
46037;DHT22;31769;49.304;8.428;2022-09-01T00:47:13;17.30;99.90
46037;DHT22;31769;49.304;8.428;2022-09-01T00:50:16;17.30;99.90
46037;DHT22;31769;49.304;8.428;2022-09-01T00:53:17;17.20;99.90
46037;DHT22;31769;49.304;8.428;2022-09-01T00:56:18;17.10;99.90
46037;DHT22;31769;49.304;8.428;2022-09-01T00:59:20;16.90;99.90
46037;DHT22;31769;49.304;8.428;2022-09-01T01:02:22;16.70;99.90
46037;DHT22;31769;49.304;8.428;2022-09-01T01:05:25;16.60;99.90
46037;DHT22;31769;49.304;8.428;2022-09-01T01:08:32;16.60;99.90
46037;DHT22;31769;49.304;8.428;2022-09-01T01:11:36;16.60;99.90
46037;DHT22;31769;49.304;8.428;2022-09-01T01:14:37;16.60;99.90
46037;DHT22;31769;49.304;8.428;2022-09-01T01:17:39;16.50;99.90
46037;DHT22;31769;49.304;8.428;2022-09-01T01:20:41;16.50;99.90
46037;DHT22;31769;49.304;8.428;2022-09-01T01:27:07;16.30;99.90
46037;DHT22;31769;49.304;8.428;2022-09-01T01:30:10;16.30;99.90
46037;DHT22;31769;49.304;8.428;2022-09-01T01:33:11;16.20;99.90
46037;DHT22;31769;49.304;8.428;2022-09-01T01:39:22;16.20;99.90
46037;DHT22;31769;49.304;8.428;2022-09-01T01:42:25;16.20;99.90
46037;DHT22;31769;49.304;8.428;2022-09-01T01:45:27;16.10;99.90
46037;DHT22;31769;49.304;8.428;2022-09-01T01:48:28;16.10;99.90
46037;DHT22;31769;49.304;8.428;2022-09-01T01:51:34;16.10;99.90
46037;DHT22;31769;49.304;8.428;2022-09-01T01:54:35;16.10;99.90
46037;DHT22;31769;49.304;8.428;2022-09-01T01:57:38;16.10;99.90
46037;DHT22;31769;49.304;8.428;2022-09-01T02:00:39;16.10;99.90
46037;DHT22;31769;49.304;8.428;2022-09-01T02:03:43;16.10;99.90
46037;DHT22;31769;49.304;8.428;2022-09-01T02:06:46;16.10;99.90
46037;DHT22;31769;49.304;8.428;2022-09-01T02:09:48;16.00;99.90
46037;DHT22;31769;49.304;8.428;2022-09-01T02:12:50;16.00;99.90
46037;DHT22;31769;49.304;8.428;2022-09-01T02:15:54;15.90;99.90
46037;DHT22;31769;49.304;8.428;2022-09-01T02:18:55;16.00;99.90
46037;DHT22;31769;49.304;8.428;2022-09-01T02:21:56;16.00;99.90
46037;DHT22;31769;49.304;8.428;2022-09-01T02:24:59;15.90;99.90
46037;DHT22;31769;49.304;8.428;2022-09-01T02:28:01;16.00;99.90
46037;DHT22;31769;49.304;8.428;2022-09-01T02:31:04;16.00;99.90
46037;DHT22;31769;49.304;8.428;2022-09-01T02:34:07;16.00;99.90
46037;DHT22;31769;49.304;8.428;2022-09-01T02:37:13;16.00;99.90
46037;DHT22;31769;49.304;8.428;2022-09-01T02:40:15;16.00;99.90
46037;DHT22;31769;49.304;8.428;2022-09-01T02:43:16;16.00;99.90
46037;DHT22;31769;49.304;8.428;2022-09-01T02:46:20;15.90;99.90
46037;DHT22;31769;49.304;8.428;2022-09-01T02:49:23;15.90;99.90
46037;DHT22;31769;49.304;8.428;2022-09-01T02:52:28;15.80;99.90
46037;DHT22;31769;49.304;8.428;2022-09-01T02:55:37;15.60;99.90
46037;DHT22;31769;49.304;8.428;2022-09-01T02:58:39;15.70;99.90
46037;DHT22;31769;49.304;8.428;2022-09-01T03:01:45;15.60;99.90
46037;DHT22;31769;49.304;8.428;2022-09-01T03:04:46;15.70;99.90
46037;DHT22;31769;49.304;8.428;2022-09-01T03:07:54;15.70;99.90
46037;DHT22;31769;49.304;8.428;2022-09-01T03:10:57;15.70;99.90
46037;DHT22;31769;49.304;8.428;2022-09-01T03:14:01;15.70;99.90
46037;DHT22;31769;49.304;8.428;2022-09-01T03:17:02;15.70;99.90
46037;DHT22;31769;49.304;8.428;2022-09-01T03:20:03;15.80;99.90
46037;DHT22;31769;49.304;8.428;2022-09-01T03:23:07;15.80;99.90
46037;DHT22;31769;49.304;8.428;2022-09-01T03:26:08;15.70;99.90
46037;DHT22;31769;49.304;8.428;2022-09-01T03:29:09;15.70;99.90
46037;DHT22;31769;49.304;8.428;2022-09-01T03:32:10;15.70;99.90
46037;DHT22;31769;49.304;8.428;2022-09-01T03:35:11;15.70;99.90
46037;DHT22;31769;49.304;8.428;2022-09-01T03:38:13;15.60;99.90
46037;DHT22;31769;49.304;8.428;2022-09-01T03:41:27;15.60;99.90
46037;DHT22;31769;49.304;8.428;2022-09-01T03:44:28;15.50;99.90
46037;DHT22;31769;49.304;8.428;2022-09-01T03:47:29;15.60;99.90
46037;DHT22;31769;49.304;8.428;2022-09-01T03:50:30;15.70;99.90
46037;DHT22;31769;49.304;8.428;2022-09-01T03:53:33;15.60;99.90
46037;DHT22;31769;49.304;8.428;2022-09-01T03:56:39;15.80;99.90
46037;DHT22;31769;49.304;8.428;2022-09-01T03:59:42;15.60;99.90
46037;DHT22;31769;49.304;8.428;2022-09-01T04:02:46;15.80;99.90
46037;DHT22;31769;49.304;8.428;2022-09-01T04:05:51;15.70;99.90
46037;DHT22;31769;49.304;8.428;2022-09-01T04:08:52;15.70;99.90
46037;DHT22;31769;49.304;8.428;2022-09-01T04:11:57;15.60;99.90
46037;DHT22;31769;49.304;8.428;2022-09-01T04:14:59;15.50;99.90
46037;DHT22;31769;49.304;8.428;2022-09-01T04:17:59;15.50;99.90
46037;DHT22;31769;49.304;8.428;2022-09-01T04:21:10;15.50;99.90
46037;DHT22;31769;49.304;8.428;2022-09-01T04:24:13;15.60;99.90
46037;DHT22;31769;49.304;8.428;2022-09-01T04:27:15;16.90;99.90
46037;DHT22;31769;49.304;8.428;2022-09-01T04:30:17;15.50;99.90
46037;DHT22;31769;49.304;8.428;2022-09-01T04:33:24;15.50;99.90
46037;DHT22;31769;49.304;8.428;2022-09-01T04:36:28;15.50;99.90
46037;DHT22;31769;49.304;8.428;2022-09-01T04:39:31;15.50;99.90
46037;DHT22;31769;49.304;8.428;2022-09-01T04:46:55;15.40;99.90
46037;DHT22;31769;49.304;8.428;2022-09-01T04:49:57;15.50;99.90
46037;DHT22;31769;49.304;8.428;2022-09-01T04:53:01;15.50;99.90
46037;DHT22;31769;49.304;8.428;2022-09-01T04:56:07;15.50;99.90
46037;DHT22;31769;49.304;8.428;2022-09-01T04:59:13;15.50;99.90
46037;DHT22;31769;49.304;8.428;2022-09-01T05:02:16;15.50;99.90
46037;DHT22;31769;49.304;8.428;2022-09-01T05:05:21;15.40;99.90
46037;DHT22;31769;49.304;8.428;2022-09-01T05:08:23;15.40;99.90
46037;DHT22;31769;49.304;8.428;2022-09-01T05:11:25;15.40;99.90
46037;DHT22;31769;49.304;8.428;2022-09-01T05:14:40;15.40;99.90
46037;DHT22;31769;49.304;8.428;2022-09-01T05:17:42;15.40;99.90
46037;DHT22;31769;49.304;8.428;2022-09-01T05:20:43;15.40;99.90
46037;DHT22;31769;49.304;8.428;2022-09-01T05:23:44;15.50;99.90
46037;DHT22;31769;49.304;8.428;2022-09-01T05:26:47;15.60;99.90
46037;DHT22;31769;49.304;8.428;2022-09-01T05:29:50;15.70;99.90
46037;DHT22;31769;49.304;8.428;2022-09-01T05:32:51;15.90;99.90
46037;DHT22;31769;49.304;8.428;2022-09-01T05:35:57;16.20;99.90
46037;DHT22;31769;49.304;8.428;2022-09-01T05:39:04;16.40;99.90
46037;DHT22;31769;49.304;8.428;2022-09-01T05:42:06;16.60;99.90
46037;DHT22;31769;49.304;8.428;2022-09-01T05:45:12;16.60;99.90
46037;DHT22;31769;49.304;8.428;2022-09-01T05:48:14;16.60;99.90
46037;DHT22;31769;49.304;8.428;2022-09-01T05:51:23;16.70;99.90
46037;DHT22;31769;49.304;8.428;2022-09-01T05:54:26;16.70;99.90
46037;DHT22;31769;49.304;8.428;2022-09-01T05:57:29;16.80;99.90
46037;DHT22;31769;49.304;8.428;2022-09-01T06:00:36;17.00;99.90
46037;DHT22;31769;49.304;8.428;2022-09-01T06:03:38;17.10;99.90
46037;DHT22;31769;49.304;8.428;2022-09-01T06:06:44;17.20;99.90
46037;DHT22;31769;49.304;8.428;2022-09-01T06:09:49;17.20;99.90
46037;DHT22;31769;49.304;8.428;2022-09-01T06:12:53;17.40;99.90
46037;DHT22;31769;49.304;8.428;2022-09-01T06:15:54;17.50;99.90
46037;DHT22;31769;49.304;8.428;2022-09-01T06:18:58;17.60;99.90
46037;DHT22;31769;49.304;8.428;2022-09-01T06:21:59;17.70;99.90
46037;DHT22;31769;49.304;8.428;2022-09-01T06:25:01;17.90;99.90
46037;DHT22;31769;49.304;8.428;2022-09-01T06:28:07;18.00;99.90
46037;DHT22;31769;49.304;8.428;2022-09-01T06:31:09;18.10;99.90
46037;DHT22;31769;49.304;8.428;2022-09-01T06:34:11;18.20;99.90
46037;DHT22;31769;49.304;8.428;2022-09-01T06:37:17;18.40;99.90
46037;DHT22;31769;49.304;8.428;2022-09-01T06:40:23;18.40;99.90
46037;DHT22;31769;49.304;8.428;2022-09-01T06:43:25;18.50;99.90
46037;DHT22;31769;49.304;8.428;2022-09-01T06:46:27;18.50;99.90
46037;DHT22;31769;49.304;8.428;2022-09-01T06:49:32;18.70;99.90
46037;DHT22;31769;49.304;8.428;2022-09-01T06:52:34;18.80;99.90
46037;DHT22;31769;49.304;8.428;2022-09-01T06:55:39;18.90;99.90
46037;DHT22;31769;49.304;8.428;2022-09-01T06:58:42;19.00;99.90
46037;DHT22;31769;49.304;8.428;2022-09-01T07:01:49;19.20;99.90
46037;DHT22;31769;49.304;8.428;2022-09-01T07:04:55;19.40;99.90
46037;DHT22;31769;49.304;8.428;2022-09-01T07:07:56;19.60;99.90
46037;DHT22;31769;49.304;8.428;2022-09-01T07:11:20;19.70;99.90
46037;DHT22;31769;49.304;8.428;2022-09-01T07:14:26;19.80;99.90
46037;DHT22;31769;49.304;8.428;2022-09-01T07:17:27;19.80;99.90
46037;DHT22;31769;49.304;8.428;2022-09-01T07:20:30;19.90;99.90
46037;DHT22;31769;49.304;8.428;2022-09-01T07:23:33;20.00;99.90
46037;DHT22;31769;49.304;8.428;2022-09-01T07:26:34;20.00;99.90
46037;DHT22;31769;49.304;8.428;2022-09-01T07:29:35;20.10;99.90
46037;DHT22;31769;49.304;8.428;2022-09-01T07:32:36;20.10;99.90
46037;DHT22;31769;49.304;8.428;2022-09-01T07:35:45;20.10;99.90
46037;DHT22;31769;49.304;8.428;2022-09-01T07:38:46;20.20;99.90
46037;DHT22;31769;49.304;8.428;2022-09-01T07:41:53;20.30;99.90
46037;DHT22;31769;49.304;8.428;2022-09-01T07:45:17;20.40;99.90
46037;DHT22;31769;49.304;8.428;2022-09-01T07:48:30;20.60;99.90
46037;DHT22;31769;49.304;8.428;2022-09-01T07:51:31;20.70;99.90
46037;DHT22;31769;49.304;8.428;2022-09-01T07:54:34;20.80;99.90
46037;DHT22;31769;49.304;8.428;2022-09-01T07:57:39;20.80;99.90
46037;DHT22;31769;49.304;8.428;2022-09-01T08:00:42;21.00;99.90
46037;DHT22;31769;49.304;8.428;2022-09-01T08:03:50;21.10;99.90
46037;DHT22;31769;49.304;8.428;2022-09-01T08:06:53;21.20;99.90
46037;DHT22;31769;49.304;8.428;2022-09-01T08:09:55;21.30;99.90
46037;DHT22;31769;49.304;8.428;2022-09-01T08:12:56;21.50;99.90
46037;DHT22;31769;49.304;8.428;2022-09-01T08:15:57;21.70;99.90
46037;DHT22;31769;49.304;8.428;2022-09-01T08:18:59;21.60;99.90
46037;DHT22;31769;49.304;8.428;2022-09-01T08:22:08;21.60;99.90
46037;DHT22;31769;49.304;8.428;2022-09-01T08:25:35;21.80;99.90
46037;DHT22;31769;49.304;8.428;2022-09-01T08:28:36;21.90;99.90
46037;DHT22;31769;49.304;8.428;2022-09-01T08:31:37;21.90;99.90
46037;DHT22;31769;49.304;8.428;2022-09-01T08:34:38;22.00;99.90
46037;DHT22;31769;49.304;8.428;2022-09-01T08:37:39;22.10;99.90
46037;DHT22;31769;49.304;8.428;2022-09-01T08:40:41;22.10;99.90
46037;DHT22;31769;49.304;8.428;2022-09-01T08:44:03;22.20;99.90
46037;DHT22;31769;49.304;8.428;2022-09-01T08:47:10;22.10;99.90
46037;DHT22;31769;49.304;8.428;2022-09-01T08:50:11;22.20;99.90
46037;DHT22;31769;49.304;8.428;2022-09-01T08:53:45;22.20;99.90
46037;DHT22;31769;49.304;8.428;2022-09-01T08:56:50;22.40;99.90
46037;DHT22;31769;49.304;8.428;2022-09-01T08:59:55;22.50;99.90
46037;DHT22;31769;49.304;8.428;2022-09-01T09:06:54;22.70;99.90
46037;DHT22;31769;49.304;8.428;2022-09-01T09:10:06;22.80;99.90
46037;DHT22;31769;49.304;8.428;2022-09-01T09:13:34;22.90;99.90
46037;DHT22;31769;49.304;8.428;2022-09-01T09:16:45;23.20;99.90
46037;DHT22;31769;49.304;8.428;2022-09-01T09:19:48;23.20;99.90
46037;DHT22;31769;49.304;8.428;2022-09-01T09:22:48;23.20;99.90
46037;DHT22;31769;49.304;8.428;2022-09-01T09:25:49;23.00;99.90
46037;DHT22;31769;49.304;8.428;2022-09-01T09:28:50;23.10;99.90
46037;DHT22;31769;49.304;8.428;2022-09-01T09:32:05;23.10;99.90
46037;DHT22;31769;49.304;8.428;2022-09-01T09:35:23;23.30;99.90
46037;DHT22;31769;49.304;8.428;2022-09-01T09:38:24;23.30;99.90
46037;DHT22;31769;49.304;8.428;2022-09-01T09:41:28;23.40;99.90
46037;DHT22;31769;49.304;8.428;2022-09-01T09:44:31;23.40;99.90
46037;DHT22;31769;49.304;8.428;2022-09-01T09:47:40;23.60;99.90
46037;DHT22;31769;49.304;8.428;2022-09-01T09:50:41;23.60;99.90
46037;DHT22;31769;49.304;8.428;2022-09-01T09:53:43;23.60;99.90
46037;DHT22;31769;49.304;8.428;2022-09-01T09:56:44;23.60;99.90
46037;DHT22;31769;49.304;8.428;2022-09-01T09:59:53;23.80;99.90
46037;DHT22;31769;49.304;8.428;2022-09-01T10:06:01;23.90;99.90
46037;DHT22;31769;49.304;8.428;2022-09-01T10:09:05;23.90;99.90
46037;DHT22;31769;49.304;8.428;2022-09-01T10:12:08;24.10;99.90
46037;DHT22;31769;49.304;8.428;2022-09-01T10:15:10;24.40;99.90
46037;DHT22;31769;49.304;8.428;2022-09-01T10:18:16;24.80;99.90
46037;DHT22;31769;49.304;8.428;2022-09-01T10:21:25;25.10;99.60
46037;DHT22;31769;49.304;8.428;2022-09-01T10:24:31;25.10;99.00
46037;DHT22;31769;49.304;8.428;2022-09-01T10:27:36;25.10;98.90
46037;DHT22;31769;49.304;8.428;2022-09-01T10:30:43;25.20;98.80
46037;DHT22;31769;49.304;8.428;2022-09-01T10:33:45;25.40;98.70
46037;DHT22;31769;49.304;8.428;2022-09-01T10:36:47;25.80;97.80
46037;DHT22;31769;49.304;8.428;2022-09-01T10:46:44;25.80;96.50
46037;DHT22;31769;49.304;8.428;2022-09-01T10:56:02;25.60;96.40
46037;DHT22;31769;49.304;8.428;2022-09-01T10:59:09;25.40;96.30
46037;DHT22;31769;49.304;8.428;2022-09-01T11:02:13;25.50;96.20
46037;DHT22;31769;49.304;8.428;2022-09-01T11:05:17;25.60;96.10
46037;DHT22;31769;49.304;8.428;2022-09-01T11:11:42;26.00;95.20
46037;DHT22;31769;49.304;8.428;2022-09-01T11:20:52;27.20;92.20
46037;DHT22;31769;49.304;8.428;2022-09-01T11:34:14;28.00;89.30
46037;DHT22;31769;49.304;8.428;2022-09-01T11:37:20;27.80;88.90
46037;DHT22;31769;49.304;8.428;2022-09-01T11:40:27;27.80;87.90
46037;DHT22;31769;49.304;8.428;2022-09-01T11:43:29;28.30;87.00
46037;DHT22;31769;49.304;8.428;2022-09-01T11:46:34;28.50;85.20
46037;DHT22;31769;49.304;8.428;2022-09-01T11:49:38;29.00;84.60
46037;DHT22;31769;49.304;8.428;2022-09-01T11:52:39;29.50;82.80
46037;DHT22;31769;49.304;8.428;2022-09-01T11:55:43;30.20;80.00
46037;DHT22;31769;49.304;8.428;2022-09-01T11:58:45;30.80;78.90
46037;DHT22;31769;49.304;8.428;2022-09-01T12:01:45;31.70;76.00
46037;DHT22;31769;49.304;8.428;2022-09-01T12:04:46;31.90;73.10
46037;DHT22;31769;49.304;8.428;2022-09-01T12:07:47;32.10;70.20
46037;DHT22;31769;49.304;8.428;2022-09-01T12:10:48;32.10;69.30
46037;DHT22;31769;49.304;8.428;2022-09-01T12:14:04;32.50;68.10
46037;DHT22;31769;49.304;8.428;2022-09-01T12:17:05;33.90;64.50
46037;DHT22;31769;49.304;8.428;2022-09-01T12:20:27;36.00;61.00
46037;DHT22;31769;49.304;8.428;2022-09-01T12:23:37;38.20;55.70
46037;DHT22;31769;49.304;8.428;2022-09-01T12:26:39;40.30;49.80
46037;DHT22;31769;49.304;8.428;2022-09-01T12:29:41;40.30;47.70
46037;DHT22;31769;49.304;8.428;2022-09-01T12:32:42;40.10;47.70
46037;DHT22;31769;49.304;8.428;2022-09-01T12:35:44;39.00;48.00
46037;DHT22;31769;49.304;8.428;2022-09-01T12:38:45;37.30;50.00
46037;DHT22;31769;49.304;8.428;2022-09-01T12:42:11;38.70;49.30
46037;DHT22;31769;49.304;8.428;2022-09-01T12:45:12;41.50;46.00
46037;DHT22;31769;49.304;8.428;2022-09-01T12:48:29;42.70;44.30
46037;DHT22;31769;49.304;8.428;2022-09-01T12:51:30;44.60;42.60
46037;DHT22;31769;49.304;8.428;2022-09-01T12:54:30;45.20;40.50
46037;DHT22;31769;49.304;8.428;2022-09-01T12:57:40;45.30;39.90
46037;DHT22;31769;49.304;8.428;2022-09-01T13:00:57;46.20;39.00
46037;DHT22;31769;49.304;8.428;2022-09-01T13:04:28;45.30;39.30
46037;DHT22;31769;49.304;8.428;2022-09-01T13:07:30;46.50;38.30
46037;DHT22;31769;49.304;8.428;2022-09-01T13:10:37;47.30;37.20
46037;DHT22;31769;49.304;8.428;2022-09-01T13:13:39;47.50;36.50
46037;DHT22;31769;49.304;8.428;2022-09-01T13:16:40;48.30;35.70
46037;DHT22;31769;49.304;8.428;2022-09-01T13:19:41;48.70;35.40
46037;DHT22;31769;49.304;8.428;2022-09-01T13:22:42;47.50;36.00
46037;DHT22;31769;49.304;8.428;2022-09-01T13:25:44;45.80;36.90
46037;DHT22;31769;49.304;8.428;2022-09-01T13:28:45;41.40;40.40
46037;DHT22;31769;49.304;8.428;2022-09-01T13:31:46;40.60;41.50
46037;DHT22;31769;49.304;8.428;2022-09-01T13:34:48;42.10;40.40
46037;DHT22;31769;49.304;8.428;2022-09-01T13:37:49;44.50;38.60
46037;DHT22;31769;49.304;8.428;2022-09-01T13:40:50;47.10;36.90
46037;DHT22;31769;49.304;8.428;2022-09-01T13:43:51;46.40;36.50
46037;DHT22;31769;49.304;8.428;2022-09-01T13:46:52;42.50;38.30
46037;DHT22;31769;49.304;8.428;2022-09-01T13:49:54;38.20;42.80
46037;DHT22;31769;49.304;8.428;2022-09-01T13:52:55;36.90;44.20
46037;DHT22;31769;49.304;8.428;2022-09-01T13:55:56;40.50;41.20
46037;DHT22;31769;49.304;8.428;2022-09-01T13:58:57;44.10;38.00
46037;DHT22;31769;49.304;8.428;2022-09-01T14:01:58;46.50;36.10
46037;DHT22;31769;49.304;8.428;2022-09-01T14:04:59;47.60;35.40
46037;DHT22;31769;49.304;8.428;2022-09-01T14:08:00;48.60;34.70
46037;DHT22;31769;49.304;8.428;2022-09-01T14:11:01;48.30;34.50
46037;DHT22;31769;49.304;8.428;2022-09-01T14:14:02;47.10;35.10
46037;DHT22;31769;49.304;8.428;2022-09-01T14:17:03;47.10;34.40
46037;DHT22;31769;49.304;8.428;2022-09-01T14:20:09;48.40;33.80
46037;DHT22;31769;49.304;8.428;2022-09-01T14:23:12;49.30;33.30
46037;DHT22;31769;49.304;8.428;2022-09-01T14:26:14;44.50;35.90
46037;DHT22;31769;49.304;8.428;2022-09-01T14:29:16;42.70;37.70
46037;DHT22;31769;49.304;8.428;2022-09-01T14:32:16;43.60;37.20
46037;DHT22;31769;49.304;8.428;2022-09-01T14:35:20;45.40;35.90
46037;DHT22;31769;49.304;8.428;2022-09-01T14:38:23;46.60;34.70
46037;DHT22;31769;49.304;8.428;2022-09-01T14:41:24;46.70;34.70
46037;DHT22;31769;49.304;8.428;2022-09-01T14:44:25;45.60;35.20
46037;DHT22;31769;49.304;8.428;2022-09-01T14:50:50;42.70;37.20
46037;DHT22;31769;49.304;8.428;2022-09-01T14:53:52;41.10;38.50
46037;DHT22;31769;49.304;8.428;2022-09-01T14:56:53;41.00;39.00
46037;DHT22;31769;49.304;8.428;2022-09-01T14:59:57;42.00;38.40
46037;DHT22;31769;49.304;8.428;2022-09-01T15:02:58;44.50;36.60
46037;DHT22;31769;49.304;8.428;2022-09-01T15:05:59;44.80;35.90
46037;DHT22;31769;49.304;8.428;2022-09-01T15:09:00;45.10;35.90
46037;DHT22;31769;49.304;8.428;2022-09-01T15:12:02;46.20;35.40
46037;DHT22;31769;49.304;8.428;2022-09-01T15:15:03;44.90;36.90
46037;DHT22;31769;49.304;8.428;2022-09-01T15:18:03;45.30;36.00
46037;DHT22;31769;49.304;8.428;2022-09-01T15:21:04;45.40;35.80
46037;DHT22;31769;49.304;8.428;2022-09-01T15:24:06;46.10;35.20
46037;DHT22;31769;49.304;8.428;2022-09-01T15:27:07;45.40;35.10
46037;DHT22;31769;49.304;8.428;2022-09-01T15:30:11;43.80;36.00
46037;DHT22;31769;49.304;8.428;2022-09-01T15:33:17;44.30;35.50
46037;DHT22;31769;49.304;8.428;2022-09-01T15:36:20;43.10;36.30
46037;DHT22;31769;49.304;8.428;2022-09-01T15:39:24;44.50;36.00
46037;DHT22;31769;49.304;8.428;2022-09-01T15:42:25;45.10;35.40
46037;DHT22;31769;49.304;8.428;2022-09-01T15:45:27;46.30;34.70
46037;DHT22;31769;49.304;8.428;2022-09-01T15:48:28;46.40;34.50
46037;DHT22;31769;49.304;8.428;2022-09-01T15:51:32;46.20;34.90
46037;DHT22;31769;49.304;8.428;2022-09-01T15:54:37;46.20;34.70
46037;DHT22;31769;49.304;8.428;2022-09-01T15:57:37;46.60;34.70
46037;DHT22;31769;49.304;8.428;2022-09-01T16:00:39;46.10;34.80
46037;DHT22;31769;49.304;8.428;2022-09-01T16:03:41;45.60;35.10
46037;DHT22;31769;49.304;8.428;2022-09-01T16:06:42;45.50;35.40
46037;DHT22;31769;49.304;8.428;2022-09-01T16:09:43;44.40;36.00
46037;DHT22;31769;49.304;8.428;2022-09-01T16:12:44;43.80;36.50
46037;DHT22;31769;49.304;8.428;2022-09-01T16:16:01;43.60;36.20
46037;DHT22;31769;49.304;8.428;2022-09-01T16:19:27;42.40;36.80
46037;DHT22;31769;49.304;8.428;2022-09-01T16:22:33;39.40;39.20
46037;DHT22;31769;49.304;8.428;2022-09-01T16:25:35;37.10;41.60
46037;DHT22;31769;49.304;8.428;2022-09-01T16:28:36;34.70;44.30
46037;DHT22;31769;49.304;8.428;2022-09-01T16:31:37;32.90;47.00
46037;DHT22;31769;49.304;8.428;2022-09-01T16:34:40;31.50;48.90
46037;DHT22;31769;49.304;8.428;2022-09-01T16:51:37;28.10;55.30
46037;DHT22;31769;49.304;8.428;2022-09-01T16:55:11;27.70;56.40
46037;DHT22;31769;49.304;8.428;2022-09-01T16:58:45;27.40;57.20
46037;DHT22;31769;49.304;8.428;2022-09-01T17:05:31;26.90;59.60
46037;DHT22;31769;49.304;8.428;2022-09-01T17:08:47;26.60;59.50
46037;DHT22;31769;49.304;8.428;2022-09-01T17:11:58;26.40;60.30
46037;DHT22;31769;49.304;8.428;2022-09-01T17:15:14;26.10;61.00
46037;DHT22;31769;49.304;8.428;2022-09-01T17:21:30;25.70;62.10
46037;DHT22;31769;49.304;8.428;2022-09-01T17:24:40;25.60;62.70
46037;DHT22;31769;49.304;8.428;2022-09-01T17:28:05;25.40;63.40
46037;DHT22;31769;49.304;8.428;2022-09-01T17:44:42;24.50;66.90
46037;DHT22;31769;49.304;8.428;2022-09-01T17:52:02;24.20;69.00
46037;DHT22;31769;49.304;8.428;2022-09-01T18:05:13;23.80;72.40
46037;DHT22;31769;49.304;8.428;2022-09-01T18:11:38;23.60;74.40
46037;DHT22;31769;49.304;8.428;2022-09-01T18:15:01;23.50;75.10
46037;DHT22;31769;49.304;8.428;2022-09-01T18:18:27;23.40;76.00
46037;DHT22;31769;49.304;8.428;2022-09-01T18:21:35;23.30;76.50
46037;DHT22;31769;49.304;8.428;2022-09-01T18:24:58;23.20;77.40
46037;DHT22;31769;49.304;8.428;2022-09-01T18:28:01;23.10;78.60
46037;DHT22;31769;49.304;8.428;2022-09-01T18:31:20;23.00;79.60
46037;DHT22;31769;49.304;8.428;2022-09-01T18:38:16;22.80;81.00
46037;DHT22;31769;49.304;8.428;2022-09-01T18:44:40;22.70;82.30
46037;DHT22;31769;49.304;8.428;2022-09-01T18:48:51;22.60;82.90
46037;DHT22;31769;49.304;8.428;2022-09-01T18:55:13;22.50;84.10
46037;DHT22;31769;49.304;8.428;2022-09-01T19:04:58;22.30;85.80
46037;DHT22;31769;49.304;8.428;2022-09-01T19:11:12;22.10;87.10
46037;DHT22;31769;49.304;8.428;2022-09-01T19:20:50;21.90;88.60
46037;DHT22;31769;49.304;8.428;2022-09-01T19:24:17;21.90;88.80
46037;DHT22;31769;49.304;8.428;2022-09-01T19:27:27;21.80;89.10
46037;DHT22;31769;49.304;8.428;2022-09-01T19:30:30;21.80;89.20
46037;DHT22;31769;49.304;8.428;2022-09-01T19:33:33;21.80;89.30
46037;DHT22;31769;49.304;8.428;2022-09-01T19:36:47;21.70;89.50
46037;DHT22;31769;49.304;8.428;2022-09-01T19:39:49;21.70;89.20
46037;DHT22;31769;49.304;8.428;2022-09-01T19:42:55;21.60;89.50
46037;DHT22;31769;49.304;8.428;2022-09-01T19:46:11;21.50;90.10
46037;DHT22;31769;49.304;8.428;2022-09-01T19:49:25;21.50;90.10
46037;DHT22;31769;49.304;8.428;2022-09-01T19:55:57;21.40;90.50
46037;DHT22;31769;49.304;8.428;2022-09-01T19:59:09;21.40;90.80
46037;DHT22;31769;49.304;8.428;2022-09-01T20:02:27;21.40;90.80
46037;DHT22;31769;49.304;8.428;2022-09-01T20:05:42;21.30;90.90
46037;DHT22;31769;49.304;8.428;2022-09-01T20:08:55;21.30;91.10
46037;DHT22;31769;49.304;8.428;2022-09-01T20:12:16;21.20;91.30
46037;DHT22;31769;49.304;8.428;2022-09-01T20:15:39;21.10;91.50
46037;DHT22;31769;49.304;8.428;2022-09-01T20:22:31;21.00;91.90
46037;DHT22;31769;49.304;8.428;2022-09-01T20:25:41;21.00;92.20
46037;DHT22;31769;49.304;8.428;2022-09-01T20:31:48;20.90;92.70
46037;DHT22;31769;49.304;8.428;2022-09-01T20:34:54;20.80;92.90
46037;DHT22;31769;49.304;8.428;2022-09-01T20:38:02;20.70;92.90
46037;DHT22;31769;49.304;8.428;2022-09-01T20:41:12;20.70;93.10
46037;DHT22;31769;49.304;8.428;2022-09-01T20:47:28;20.60;93.60
46037;DHT22;31769;49.304;8.428;2022-09-01T20:50:39;20.60;93.90
46037;DHT22;31769;49.304;8.428;2022-09-01T21:00:03;20.40;94.80
46037;DHT22;31769;49.304;8.428;2022-09-01T21:06:59;20.30;95.60
46037;DHT22;31769;49.304;8.428;2022-09-01T21:19:23;20.10;96.70
46037;DHT22;31769;49.304;8.428;2022-09-01T21:22:26;20.00;97.00
46037;DHT22;31769;49.304;8.428;2022-09-01T21:25:27;20.00;97.30
46037;DHT22;31769;49.304;8.428;2022-09-01T21:28:28;20.00;97.70
46037;DHT22;31769;49.304;8.428;2022-09-01T21:31:29;19.90;97.90
46037;DHT22;31769;49.304;8.428;2022-09-01T21:34:30;19.90;98.20
46037;DHT22;31769;49.304;8.428;2022-09-01T21:37:31;19.80;98.50
46037;DHT22;31769;49.304;8.428;2022-09-01T21:40:32;19.80;98.80
46037;DHT22;31769;49.304;8.428;2022-09-01T21:43:36;19.70;99.00
46037;DHT22;31769;49.304;8.428;2022-09-01T21:46:38;19.70;99.30
46037;DHT22;31769;49.304;8.428;2022-09-01T21:49:38;19.70;99.80
46037;DHT22;31769;49.304;8.428;2022-09-01T21:52:39;19.60;99.70
46037;DHT22;31769;49.304;8.428;2022-09-01T21:55:40;19.60;99.90
46037;DHT22;31769;49.304;8.428;2022-09-01T21:58:41;19.50;99.90
46037;DHT22;31769;49.304;8.428;2022-09-01T22:01:42;19.50;99.90
46037;DHT22;31769;49.304;8.428;2022-09-01T22:04:43;19.40;99.90
46037;DHT22;31769;49.304;8.428;2022-09-01T22:07:45;19.30;99.90
46037;DHT22;31769;49.304;8.428;2022-09-01T22:10:48;19.30;99.90
46037;DHT22;31769;49.304;8.428;2022-09-01T22:13:49;19.40;99.90